createdAt,value
2019-05-10T00:01:23.534Z,92.00
2019-05-10T00:04:10.469Z,91.31
2019-05-10T00:06:57.685Z,90.88
2019-05-10T00:09:26.310Z,90.00
2019-05-10T00:12:06.260Z,89.46
2019-05-10T00:14:37.398Z,89.45
2019-05-10T00:17:08.611Z,89.43
2019-05-10T00:19:37.995Z,89.43
2019-05-10T00:22:07.666Z,89.13
2019-05-10T00:24:37.056Z,88.85
2019-05-10T00:27:06.721Z,88.87
2019-05-10T00:29:37.076Z,88.93
2019-05-10T00:32:06.768Z,88.93
2019-05-10T00:34:36.145Z,89.16
2019-05-10T00:37:05.890Z,89.14
2019-05-10T00:39:35.271Z,89.17
2019-05-10T00:42:05.048Z,89.43
2019-05-10T00:44:34.734Z,89.25
2019-05-10T00:47:04.466Z,89.07
2019-05-10T00:49:33.856Z,89.04
2019-05-10T00:52:03.290Z,89.36
2019-05-10T00:54:32.792Z,90.17
2019-05-10T00:57:02.229Z,90.66
2019-05-10T00:59:31.758Z,90.89
2019-05-10T01:02:01.741Z,91.05
2019-05-10T01:04:31.538Z,91.05
2019-05-10T01:07:01.043Z,91.23
2019-05-10T01:09:30.707Z,91.75
2019-05-10T01:12:00.079Z,92.35
2019-05-10T01:14:29.795Z,92.88
2019-05-10T01:16:59.178Z,93.23
2019-05-10T01:19:28.884Z,93.41
2019-05-10T01:21:58.273Z,93.84
2019-05-10T01:24:29.200Z,94.34
2019-05-10T01:26:58.955Z,94.79
2019-05-10T01:29:28.583Z,95.14
2019-05-10T01:31:58.349Z,95.33
2019-05-10T01:34:28.067Z,95.67
2019-05-10T01:36:57.420Z,95.87
2019-05-10T01:39:26.900Z,96.02
2019-05-10T01:41:56.811Z,96.21
2019-05-10T01:44:26.392Z,96.47
2019-05-10T01:46:57.136Z,96.71
2019-05-10T01:49:26.812Z,96.79
2019-05-10T01:51:56.252Z,97.02
2019-05-10T01:54:25.959Z,97.22
2019-05-10T01:56:55.327Z,97.42
2019-05-10T01:59:24.928Z,97.52
2019-05-10T02:01:55.495Z,97.64
2019-05-10T02:04:25.024Z,97.64
2019-05-10T02:06:54.455Z,97.63
2019-05-10T02:09:23.987Z,97.61
2019-05-10T02:11:54.278Z,97.65
2019-05-10T02:14:23.927Z,97.57
2019-05-10T02:16:53.350Z,97.59
2019-05-10T02:19:23.086Z,97.64
2019-05-10T02:21:54.272Z,97.74
2019-05-10T02:24:24.937Z,97.73
2019-05-10T02:26:54.310Z,97.65
2019-05-10T02:29:24.044Z,97.62
2019-05-10T02:31:53.409Z,97.73
2019-05-10T02:34:23.142Z,97.79
2019-05-10T02:36:53.661Z,97.81
2019-05-10T02:39:23.045Z,97.68
2019-05-10T02:41:53.372Z,97.49
2019-05-10T02:44:23.006Z,97.47
2019-05-10T02:46:53.340Z,97.20
2019-05-10T02:49:22.730Z,97.02
2019-05-10T02:51:53.405Z,96.95
2019-05-10T02:54:23.122Z,96.96
2019-05-10T02:56:53.350Z,96.92
2019-05-10T02:59:23.920Z,96.92
2019-05-10T03:01:56.038Z,96.89
2019-05-10T03:04:26.286Z,96.98
2019-05-10T03:07:05.436Z,96.97
2019-05-10T03:09:35.366Z,97.10
2019-05-10T03:12:24.289Z,97.31
2019-05-10T03:14:56.457Z,97.53
2019-05-10T03:17:27.107Z,97.53
2019-05-10T03:19:56.961Z,97.81
2019-05-10T03:22:26.338Z,97.85
2019-05-10T03:24:55.981Z,98.08
2019-05-10T03:27:25.358Z,98.28
2019-05-10T03:29:55.021Z,98.24
2019-05-10T03:32:24.521Z,98.04
2019-05-10T03:34:55.695Z,97.70
2019-05-10T03:37:25.289Z,97.56
2019-05-10T03:39:54.935Z,97.55
2019-05-10T03:42:24.486Z,97.26
2019-05-10T03:44:54.162Z,97.28
2019-05-10T03:47:24.495Z,97.28
2019-05-10T03:49:53.889Z,96.16
2019-05-10T03:52:23.249Z,95.68
2019-05-10T03:54:53.603Z,95.16
2019-05-10T03:57:23.225Z,94.92
2019-05-10T03:59:53.545Z,94.49
2019-05-10T04:02:23.153Z,93.96
2019-05-10T04:04:53.579Z,93.85
2019-05-10T04:07:23.293Z,93.65
2019-05-10T04:09:53.666Z,93.71
2019-05-10T04:12:23.234Z,93.42
2019-05-10T04:14:53.581Z,93.42
2019-05-10T04:17:23.195Z,94.12
2019-05-10T04:19:53.563Z,94.18
2019-05-10T04:22:23.224Z,94.09
2019-05-10T04:24:53.679Z,94.20
2019-05-10T04:27:32.229Z,94.45
2019-05-10T04:29:54.621Z,94.66
2019-05-10T04:32:24.602Z,95.05
2019-05-10T04:34:54.532Z,95.67
2019-05-10T04:37:24.187Z,95.71
2019-05-10T04:39:53.762Z,95.94
2019-05-10T04:42:23.384Z,96.11
2019-05-10T04:44:54.044Z,96.17
2019-05-10T04:47:23.876Z,96.25
2019-05-10T04:49:53.678Z,95.97
2019-05-10T04:52:23.381Z,95.92
2019-05-10T04:54:53.755Z,95.54
2019-05-10T04:57:23.378Z,95.24
2019-05-10T04:59:53.677Z,95.20
2019-05-10T05:02:23.312Z,95.36
2019-05-10T05:04:53.638Z,95.12
2019-05-10T05:07:23.315Z,94.52
2019-05-10T05:09:53.747Z,94.63
2019-05-10T05:12:23.427Z,94.82
2019-05-10T05:14:53.710Z,94.96
2019-05-10T05:17:23.355Z,94.96
2019-05-10T05:19:53.678Z,94.94
2019-05-10T05:22:23.371Z,94.93
2019-05-10T05:24:55.219Z,95.23
2019-05-10T05:27:24.881Z,95.07
2019-05-10T05:29:54.558Z,95.08
2019-05-10T05:32:24.237Z,95.17
2019-05-10T05:34:53.786Z,95.09
2019-05-10T05:37:23.469Z,95.19
2019-05-10T05:39:53.839Z,95.33
2019-05-10T05:42:28.051Z,95.62
2019-05-10T05:44:55.773Z,95.82
2019-05-10T05:47:25.499Z,96.20
2019-05-10T05:49:55.152Z,96.44
2019-05-10T05:52:24.585Z,96.41
2019-05-10T05:54:57.481Z,96.56
2019-05-10T05:57:27.575Z,97.16
2019-05-10T05:59:57.585Z,97.16
2019-05-10T06:02:27.900Z,97.31
2019-05-10T06:04:57.719Z,97.56
2019-05-10T06:07:31.107Z,97.73
2019-05-10T06:09:58.794Z,97.78
2019-05-10T06:12:28.532Z,98.05
2019-05-10T06:15:00.852Z,98.36
2019-05-10T06:17:31.764Z,98.40
2019-05-10T06:20:06.015Z,98.27
2019-05-10T06:22:32.835Z,98.45
2019-05-10T06:25:02.550Z,98.74
2019-05-10T06:27:35.394Z,98.80
2019-05-10T06:30:03.607Z,98.90
2019-05-10T06:32:32.988Z,98.93
2019-05-10T06:35:02.946Z,98.89
2019-05-10T06:37:33.135Z,99.05
2019-05-10T06:40:02.843Z,99.13
2019-05-10T06:42:34.669Z,99.17
2019-05-10T06:45:14.397Z,99.28
2019-05-10T06:47:42.122Z,99.28
2019-05-10T06:50:09.693Z,99.67
2019-05-10T06:52:39.091Z,99.87
2019-05-10T06:55:08.929Z,99.99
2019-05-10T06:57:38.647Z,100.00
2019-05-10T07:00:08.460Z,100.00
2019-05-10T07:02:37.858Z,99.98
2019-05-10T07:05:08.037Z,99.72
2019-05-10T07:07:45.614Z,99.80
2019-05-10T07:10:18.295Z,99.88
2019-05-10T07:12:40.711Z,99.92
2019-05-10T07:15:10.795Z,100.00
2019-05-10T07:17:43.667Z,99.90
2019-05-10T07:20:11.761Z,99.85
2019-05-10T07:22:41.160Z,99.83
2019-05-10T07:25:10.829Z,99.78
2019-05-10T07:27:40.204Z,99.76
2019-05-10T07:30:09.982Z,99.78
2019-05-10T07:32:39.686Z,99.73
2019-05-10T07:35:09.401Z,99.92
2019-05-10T07:37:38.794Z,100.00
2019-05-10T07:40:08.237Z,99.99
2019-05-10T07:42:39.931Z,99.56
2019-05-10T07:45:09.016Z,99.56
2019-05-10T07:47:38.697Z,99.86
2019-05-10T07:50:11.403Z,99.40
2019-05-10T07:52:43.531Z,99.10
2019-05-10T07:55:11.024Z,99.08
2019-05-10T07:57:40.675Z,98.81
2019-05-10T08:00:10.242Z,98.75
2019-05-10T08:02:44.332Z,98.76
2019-05-10T08:05:13.846Z,97.56
2019-05-10T08:07:42.833Z,97.47
2019-05-10T08:10:12.519Z,97.09
2019-05-10T08:12:45.666Z,96.60
2019-05-10T08:15:13.033Z,95.48
2019-05-10T08:17:45.474Z,94.27
2019-05-10T08:20:29.714Z,92.36
2019-05-10T08:22:46.901Z,92.50
2019-05-10T08:25:16.256Z,92.14
2019-05-10T08:27:50.577Z,93.01
2019-05-10T08:30:26.218Z,92.08
2019-05-10T08:32:52.588Z,92.15
2019-05-10T08:35:22.085Z,92.84
2019-05-10T08:37:52.974Z,91.81
2019-05-10T08:40:28.131Z,90.92
2019-05-10T08:43:03.265Z,91.60
2019-05-10T08:45:25.681Z,91.76
2019-05-10T08:48:01.022Z,92.10
2019-05-10T08:50:44.169Z,92.45
2019-05-10T08:53:02.347Z,93.18
2019-05-10T08:55:29.363Z,93.88
2019-05-10T08:57:59.035Z,91.84
2019-05-10T09:00:41.050Z,92.82
2019-05-10T09:03:08.891Z,90.56
2019-05-10T09:05:31.890Z,90.42
2019-05-10T09:08:05.640Z,90.67
2019-05-10T09:10:33.996Z,88.02
2019-05-10T09:13:03.601Z,87.92
2019-05-10T09:15:33.231Z,87.99
2019-05-10T09:18:06.471Z,88.44
2019-05-10T09:20:34.096Z,86.88
2019-05-10T09:23:08.532Z,85.66
2019-05-10T09:25:35.211Z,87.38
2019-05-10T09:28:11.690Z,87.42
2019-05-10T09:30:52.443Z,83.78
2019-05-10T09:33:10.331Z,81.28
2019-05-10T09:35:46.931Z,81.43
2019-05-10T09:38:12.526Z,81.92
2019-05-10T09:40:50.710Z,80.99
2019-05-10T09:43:14.910Z,83.24
2019-05-10T09:45:44.031Z,83.24
2019-05-10T09:48:13.415Z,81.23
2019-05-10T09:50:47.011Z,82.83
2019-05-10T09:53:21.761Z,82.12
2019-05-10T09:55:55.256Z,81.69
2019-05-10T09:58:21.724Z,82.74
2019-05-10T10:00:48.495Z,82.70
2019-05-10T10:03:18.106Z,83.17
2019-05-10T10:05:48.520Z,80.19
2019-05-10T10:08:18.035Z,80.73
2019-05-10T10:10:47.737Z,81.65
2019-05-10T10:13:33.937Z,82.40
2019-05-10T10:15:52.029Z,81.30
2019-05-10T10:18:24.948Z,77.20
2019-05-10T10:20:50.448Z,78.92
2019-05-10T10:23:24.803Z,74.76
2019-05-10T10:25:51.222Z,74.11
2019-05-10T10:28:22.564Z,73.15
2019-05-10T10:30:58.960Z,75.37
2019-05-10T10:33:26.320Z,75.78
2019-05-10T10:36:04.058Z,75.38
2019-05-10T10:38:30.632Z,71.54
2019-05-10T10:40:59.271Z,69.80
2019-05-10T10:43:28.653Z,68.98
2019-05-10T10:45:58.324Z,69.73
2019-05-10T10:48:28.441Z,69.52
2019-05-10T10:50:59.234Z,72.10
2019-05-10T10:53:28.589Z,70.15
2019-05-10T10:56:03.504Z,68.26
2019-05-10T10:58:29.508Z,69.06
2019-05-10T11:00:59.190Z,68.05
2019-05-10T11:03:30.509Z,67.54
2019-05-10T11:05:59.636Z,67.29
2019-05-10T11:08:32.917Z,69.91
2019-05-10T11:11:00.632Z,68.99
2019-05-10T11:13:44.077Z,70.86
2019-05-10T11:16:09.990Z,68.58
2019-05-10T11:18:32.600Z,68.83
2019-05-10T11:21:02.280Z,69.61
2019-05-10T11:23:37.585Z,70.00
2019-05-10T11:26:03.032Z,70.73
2019-05-10T11:28:38.753Z,70.97
2019-05-10T11:31:03.771Z,72.03
2019-05-10T11:33:33.817Z,71.76
2019-05-10T11:36:08.396Z,73.13
2019-05-10T11:38:34.655Z,73.00
2019-05-10T11:41:13.666Z,73.42
2019-05-10T11:43:42.008Z,73.67
2019-05-10T11:46:11.852Z,74.87
2019-05-10T11:48:42.268Z,74.68
2019-05-10T11:51:20.874Z,72.72
2019-05-10T11:53:55.560Z,71.18
2019-05-10T11:56:26.814Z,71.71
2019-05-10T11:58:55.423Z,72.51
2019-05-10T12:01:23.771Z,72.22
2019-05-10T12:03:54.753Z,69.05
2019-05-10T12:06:24.440Z,69.37
2019-05-10T12:11:33.137Z,65.73
2019-05-10T12:13:57.502Z,67.11
2019-05-10T12:16:27.384Z,65.65
2019-05-10T12:19:15.625Z,62.86
2019-05-10T12:21:28.178Z,62.54
2019-05-10T12:24:10.280Z,61.68
2019-05-10T12:26:05.085Z,69.01
2019-05-10T12:27:13.278Z,62.04
2019-05-10T12:29:59.519Z,62.53
2019-05-10T12:32:54.626Z,60.67
2019-05-10T12:35:08.805Z,62.96
2019-05-10T12:37:39.510Z,61.28
2019-05-10T12:40:14.700Z,62.31
2019-05-10T12:42:41.752Z,62.16
2019-05-10T12:45:11.571Z,62.41
2019-05-10T12:47:41.513Z,61.68
2019-05-10T12:50:12.230Z,61.70
2019-05-10T12:52:43.340Z,61.77
2019-05-10T12:55:12.869Z,62.02
2019-05-10T12:57:43.577Z,63.00
2019-05-10T13:00:16.013Z,63.47
2019-05-10T13:02:51.420Z,64.40
2019-05-10T13:05:16.692Z,66.95
2019-05-10T13:07:47.581Z,65.34
2019-05-10T13:10:18.036Z,65.39
2019-05-10T13:12:47.665Z,64.66
2019-05-10T13:15:17.706Z,64.74
2019-05-10T13:17:50.390Z,65.58
2019-05-10T13:20:19.188Z,68.33
2019-05-10T13:22:50.242Z,68.77
2019-05-10T13:25:19.697Z,68.16
2019-05-10T13:27:49.075Z,67.95
2019-05-10T13:30:28.104Z,67.68
2019-05-10T13:33:27.385Z,67.31
2019-05-10T13:35:43.549Z,67.95
2019-05-10T13:38:12.950Z,67.70
2019-05-10T13:40:45.684Z,67.72
2019-05-10T13:43:17.318Z,68.21
2019-05-10T13:45:46.087Z,69.36
2019-05-10T13:48:15.620Z,67.50
2019-05-10T13:50:45.041Z,67.53
2019-05-10T13:53:26.999Z,66.26
2019-05-10T13:56:02.858Z,63.68
2019-05-10T14:01:19.955Z,62.86
2019-05-10T14:04:01.430Z,61.41
2019-05-10T14:06:26.706Z,59.71
2019-05-10T14:08:57.941Z,58.04
2019-05-10T14:11:34.282Z,58.20
2019-05-10T14:14:06.921Z,59.88
2019-05-10T14:16:49.604Z,58.61
2019-05-10T14:19:22.796Z,57.36
2019-05-10T14:21:50.047Z,56.73
2019-05-10T14:24:20.705Z,56.15
2019-05-10T14:26:51.322Z,56.72
2019-05-10T14:29:32.864Z,57.54
2019-05-10T14:31:52.241Z,59.81
2019-05-10T14:34:21.771Z,57.94
2019-05-10T14:36:53.224Z,56.73
2019-05-10T14:39:22.857Z,57.40
2019-05-10T14:41:52.563Z,58.25
2019-05-10T14:44:21.899Z,58.65
2019-05-10T14:46:51.281Z,58.75
2019-05-10T14:49:20.787Z,56.48
2019-05-10T14:51:59.002Z,58.38
2019-05-10T14:54:22.287Z,58.15
2019-05-10T14:56:54.059Z,59.10
2019-05-10T15:02:07.063Z,60.02
2019-05-10T15:04:46.407Z,60.07
2019-05-10T15:07:08.562Z,59.11
2019-05-10T15:09:39.187Z,59.17
2019-05-10T15:12:10.288Z,57.56
2019-05-10T15:14:47.490Z,57.98
2019-05-10T15:17:19.794Z,57.84
2019-05-10T15:19:57.596Z,57.34
2019-05-10T15:22:22.959Z,57.32
2019-05-10T15:24:51.070Z,57.22
2019-05-10T15:27:21.637Z,56.81
2019-05-10T15:29:52.802Z,57.66
2019-05-10T15:32:34.979Z,56.24
2019-05-10T15:35:08.372Z,57.59
2019-05-10T15:37:40.752Z,58.69
2019-05-10T15:40:25.752Z,61.13
2019-05-10T15:42:57.264Z,61.90
2019-05-10T15:45:26.885Z,61.74
2019-05-10T15:47:57.420Z,61.90
2019-05-10T15:50:32.390Z,61.90
2019-05-10T15:52:59.177Z,60.63
2019-05-10T15:55:29.168Z,60.63
2019-05-10T15:58:00.261Z,59.54
2019-05-10T16:00:39.174Z,62.43
2019-05-10T16:03:07.907Z,59.53
2019-05-10T16:05:43.752Z,60.47
2019-05-10T16:08:15.537Z,60.64
2019-05-10T16:10:50.610Z,59.64
2019-05-10T16:13:54.813Z,60.64
2019-05-10T16:16:56.182Z,60.09
2019-05-10T16:19:25.872Z,60.87
2019-05-10T16:22:07.501Z,60.68
2019-05-10T16:24:37.067Z,58.63
2019-05-10T16:27:06.435Z,59.08
2019-05-10T16:29:40.166Z,58.56
2019-05-10T16:32:07.379Z,57.66
2019-05-10T16:34:36.752Z,57.66
2019-05-10T16:37:06.471Z,56.44
2019-05-10T16:39:36.107Z,56.35
2019-05-10T16:42:17.510Z,56.91
2019-05-10T16:44:47.242Z,57.39
2019-05-10T16:47:16.925Z,58.03
2019-05-10T16:49:47.656Z,56.77
2019-05-10T16:52:19.629Z,57.62
2019-05-10T16:54:48.486Z,58.63
2019-05-10T16:57:17.995Z,56.45
2019-05-10T17:02:30.224Z,56.64
2019-05-10T17:04:59.659Z,54.90
2019-05-10T17:07:29.086Z,56.26
2019-05-10T17:09:58.470Z,56.85
2019-05-10T17:12:42.974Z,55.78
2019-05-10T17:15:12.914Z,56.10
2019-05-10T17:17:44.874Z,58.14
2019-05-10T17:20:15.904Z,57.42
2019-05-10T17:22:45.247Z,58.31
2019-05-10T17:25:15.141Z,60.16
2019-05-10T17:27:44.536Z,60.16
2019-05-10T17:30:14.169Z,61.63
2019-05-10T17:32:43.539Z,60.98
2019-05-10T17:35:13.221Z,60.63
2019-05-10T17:37:42.590Z,59.80
2019-05-10T17:40:12.422Z,59.22
2019-05-10T17:42:43.268Z,58.74
2019-05-10T17:45:20.347Z,58.17
2019-05-10T17:47:50.272Z,57.37
2019-05-10T17:50:20.073Z,57.85
2019-05-10T17:52:49.516Z,57.47
2019-05-10T17:55:19.197Z,57.40
2019-05-10T17:57:54.136Z,57.56
2019-05-10T18:00:20.480Z,57.09
2019-05-10T18:02:50.156Z,57.43
2019-05-10T18:05:19.604Z,57.63
2019-05-10T18:07:49.239Z,57.71
2019-05-10T18:10:21.723Z,58.03
2019-05-10T18:12:51.189Z,58.13
2019-05-10T18:15:20.575Z,58.14
2019-05-10T18:17:50.148Z,57.89
2019-05-10T18:20:19.585Z,57.56
2019-05-10T18:22:49.279Z,57.49
2019-05-10T18:25:20.416Z,57.47
2019-05-10T18:27:49.717Z,57.50
2019-05-10T18:30:19.473Z,57.61
2019-05-10T18:32:49.140Z,57.84
2019-05-10T18:35:18.530Z,57.88
2019-05-10T18:37:48.204Z,58.07
2019-05-10T18:40:17.568Z,57.86
2019-05-10T18:42:47.243Z,57.91
2019-05-10T18:45:18.564Z,58.18
2019-05-10T18:47:48.243Z,58.50
2019-05-10T18:50:17.677Z,58.83
2019-05-10T18:52:48.743Z,58.89
2019-05-10T18:55:18.313Z,59.61
2019-05-10T18:57:50.897Z,59.69
2019-05-10T19:00:22.931Z,60.17
2019-05-10T19:02:55.320Z,60.19
2019-05-10T19:05:25.234Z,60.93
2019-05-10T19:08:02.970Z,62.12
2019-05-10T19:10:25.730Z,62.49
2019-05-10T19:13:01.071Z,62.44
2019-05-10T19:15:27.946Z,62.42
2019-05-10T19:17:57.578Z,62.27
2019-05-10T19:23:05.177Z,62.60
2019-05-10T19:25:32.817Z,62.98
2019-05-10T19:28:02.507Z,63.44
2019-05-10T19:30:32.190Z,63.67
2019-05-10T19:33:01.561Z,63.66
2019-05-10T19:35:35.673Z,63.93
2019-05-10T19:38:03.606Z,63.93
2019-05-10T19:40:33.265Z,64.20
2019-05-10T19:43:02.650Z,64.41
2019-05-10T19:45:32.567Z,64.61
2019-05-10T19:48:05.595Z,64.69
2019-05-10T19:50:34.270Z,64.68
2019-05-10T19:53:05.490Z,64.54
2019-05-10T19:55:34.959Z,64.46
2019-05-10T19:58:05.020Z,64.72
2019-05-10T20:00:36.257Z,64.57
2019-05-10T20:03:06.029Z,64.59
2019-05-10T20:05:35.421Z,64.35
2019-05-10T20:08:05.171Z,64.28
2019-05-10T20:10:34.541Z,64.28
2019-05-10T20:13:03.759Z,64.17
2019-05-10T20:15:33.464Z,63.96
2019-05-10T20:18:02.894Z,63.63
2019-05-10T20:20:32.504Z,63.23
2019-05-10T20:23:01.893Z,63.13
2019-05-10T20:25:31.534Z,62.68
2019-05-10T20:28:00.923Z,62.46
2019-05-10T20:30:30.472Z,62.77
2019-05-10T20:32:59.914Z,62.79
2019-05-10T20:35:29.505Z,62.74
2019-05-10T20:38:01.822Z,62.66
2019-05-10T20:40:30.650Z,63.47
2019-05-10T20:43:01.004Z,64.34
2019-05-10T20:45:30.565Z,64.45
2019-05-10T20:47:59.939Z,64.85
2019-05-10T20:50:29.486Z,65.09
2019-05-10T20:52:59.222Z,65.15
2019-05-10T20:55:28.687Z,65.48
2019-05-10T20:57:58.081Z,65.54
2019-05-10T21:00:27.805Z,65.67
2019-05-10T21:02:57.483Z,65.62
2019-05-10T21:05:26.886Z,65.07
2019-05-10T21:07:56.568Z,64.66
2019-05-10T21:10:27.083Z,65.03
2019-05-10T21:12:59.185Z,65.66
2019-05-10T21:15:28.519Z,66.44
2019-05-10T21:17:57.927Z,67.25
2019-05-10T21:20:27.578Z,67.92
2019-05-10T21:22:56.920Z,68.45
2019-05-10T21:25:26.300Z,68.79
2019-05-10T21:27:56.043Z,69.12
2019-05-10T21:30:26.149Z,69.48
2019-05-10T21:32:55.954Z,69.75
2019-05-10T21:35:26.834Z,69.87
2019-05-10T21:37:56.264Z,69.96
2019-05-10T21:40:25.680Z,70.37
2019-05-10T21:42:56.055Z,70.77
2019-05-10T21:45:25.586Z,71.25
2019-05-10T21:47:55.931Z,71.80
2019-05-10T21:50:25.622Z,72.33
2019-05-10T21:52:55.990Z,72.77
2019-05-10T21:55:25.671Z,73.22
2019-05-10T21:57:56.012Z,73.54
2019-05-10T22:00:27.440Z,73.96
2019-05-10T22:02:58.715Z,74.46
2019-05-10T22:05:28.133Z,74.53
2019-05-10T22:07:57.927Z,74.84
2019-05-10T22:10:34.045Z,75.14
2019-05-10T22:13:03.730Z,75.38
2019-05-10T22:15:33.107Z,75.50
2019-05-10T22:18:02.774Z,75.60
2019-05-10T22:20:43.067Z,75.82
2019-05-10T22:23:13.006Z,76.18
2019-05-10T22:25:42.680Z,76.62
2019-05-10T22:28:12.050Z,76.81
2019-05-10T22:30:41.724Z,77.11
2019-05-10T22:33:11.109Z,77.17
2019-05-10T22:35:40.736Z,77.16
2019-05-10T22:38:11.379Z,77.19
2019-05-10T22:40:40.902Z,82.58
2019-05-10T22:43:10.275Z,83.04
2019-05-10T22:45:40.936Z,80.31
2019-05-10T22:48:10.387Z,77.09
2019-05-10T22:50:39.795Z,74.81
2019-05-10T22:53:17.155Z,71.77
2019-05-10T22:55:46.825Z,71.77
2019-05-10T22:58:16.193Z,71.64
2019-05-10T23:00:45.871Z,71.76
2019-05-10T23:03:15.265Z,71.95
2019-05-10T23:05:44.881Z,72.50
2019-05-10T23:08:15.226Z,73.27
2019-05-10T23:10:44.931Z,74.07
2019-05-10T23:13:14.312Z,74.67
2019-05-10T23:15:43.991Z,75.16
2019-05-10T23:18:13.358Z,75.46
2019-05-10T23:20:43.012Z,75.85
2019-05-10T23:23:12.696Z,76.26
2019-05-10T23:25:42.080Z,76.71
2019-05-10T23:28:11.467Z,77.11
2019-05-10T23:30:40.944Z,77.75
2019-05-10T23:33:10.319Z,78.03
2019-05-10T23:35:40.004Z,78.31
2019-05-10T23:38:09.710Z,78.35
2019-05-10T23:40:39.152Z,78.52
2019-05-10T23:43:08.515Z,78.55
2019-05-10T23:45:38.088Z,78.61
2019-05-10T23:48:07.469Z,78.81
2019-05-10T23:50:36.996Z,79.17
2019-05-10T23:53:06.383Z,79.34
2019-05-10T23:55:36.088Z,79.60
2019-05-10T23:58:05.543Z,79.95
